sensor_id;sensor_type;location;lat;lon;timestamp;P1;durP1;ratioP1;P2;durP2;ratioP2
8399;SDS011;4237;47.030;15.396;2023-05-25T00:01:50;6.83;;;3.90;;
8399;SDS011;4237;47.030;15.396;2023-05-25T00:04:20;11.50;;;3.93;;
8399;SDS011;4237;47.030;15.396;2023-05-25T00:06:49;7.80;;;4.50;;
8399;SDS011;4237;47.030;15.396;2023-05-25T00:09:18;6.43;;;4.33;;
8399;SDS011;4237;47.030;15.396;2023-05-25T00:11:46;5.43;;;4.80;;
8399;SDS011;4237;47.030;15.396;2023-05-25T00:14:14;6.57;;;4.27;;
8399;SDS011;4237;47.030;15.396;2023-05-25T00:16:42;6.43;;;4.50;;
8399;SDS011;4237;47.030;15.396;2023-05-25T00:19:11;6.20;;;4.60;;
8399;SDS011;4237;47.030;15.396;2023-05-25T00:21:40;8.63;;;4.40;;
8399;SDS011;4237;47.030;15.396;2023-05-25T00:24:08;6.80;;;4.93;;
8399;SDS011;4237;47.030;15.396;2023-05-25T00:26:37;6.00;;;5.10;;
8399;SDS011;4237;47.030;15.396;2023-05-25T00:29:05;8.20;;;5.00;;
8399;SDS011;4237;47.030;15.396;2023-05-25T00:31:33;5.50;;;4.93;;
8399;SDS011;4237;47.030;15.396;2023-05-25T00:34:02;8.57;;;4.87;;
8399;SDS011;4237;47.030;15.396;2023-05-25T00:36:30;6.17;;;4.70;;
8399;SDS011;4237;47.030;15.396;2023-05-25T00:38:59;5.27;;;4.77;;
8399;SDS011;4237;47.030;15.396;2023-05-25T00:41:27;7.93;;;4.47;;
8399;SDS011;4237;47.030;15.396;2023-05-25T00:43:55;5.70;;;4.80;;
8399;SDS011;4237;47.030;15.396;2023-05-25T00:46:23;6.17;;;4.77;;
8399;SDS011;4237;47.030;15.396;2023-05-25T00:48:53;6.07;;;4.93;;
8399;SDS011;4237;47.030;15.396;2023-05-25T00:51:22;5.73;;;5.07;;
8399;SDS011;4237;47.030;15.396;2023-05-25T00:53:52;9.27;;;5.07;;
8399;SDS011;4237;47.030;15.396;2023-05-25T00:56:23;7.77;;;5.30;;
8399;SDS011;4237;47.030;15.396;2023-05-25T00:58:54;9.67;;;5.80;;
8399;SDS011;4237;47.030;15.396;2023-05-25T01:01:23;10.00;;;5.53;;
8399;SDS011;4237;47.030;15.396;2023-05-25T01:03:52;12.47;;;5.90;;
8399;SDS011;4237;47.030;15.396;2023-05-25T01:06:22;8.80;;;5.87;;
8399;SDS011;4237;47.030;15.396;2023-05-25T01:08:53;7.27;;;6.43;;
8399;SDS011;4237;47.030;15.396;2023-05-25T01:11:25;7.93;;;6.27;;
8399;SDS011;4237;47.030;15.396;2023-05-25T01:13:53;7.03;;;6.33;;
8399;SDS011;4237;47.030;15.396;2023-05-25T01:16:21;10.83;;;5.93;;
8399;SDS011;4237;47.030;15.396;2023-05-25T01:18:52;7.83;;;5.47;;
8399;SDS011;4237;47.030;15.396;2023-05-25T01:21:28;7.13;;;6.33;;
8399;SDS011;4237;47.030;15.396;2023-05-25T01:24:04;6.87;;;6.17;;
8399;SDS011;4237;47.030;15.396;2023-05-25T01:26:33;12.30;;;6.20;;
8399;SDS011;4237;47.030;15.396;2023-05-25T01:29:01;6.90;;;6.20;;
8399;SDS011;4237;47.030;15.396;2023-05-25T01:31:30;7.40;;;6.00;;
8399;SDS011;4237;47.030;15.396;2023-05-25T01:34:00;7.40;;;5.87;;
8399;SDS011;4237;47.030;15.396;2023-05-25T01:36:28;6.50;;;5.60;;
8399;SDS011;4237;47.030;15.396;2023-05-25T01:38:57;6.53;;;5.40;;
8399;SDS011;4237;47.030;15.396;2023-05-25T01:41:26;10.77;;;6.33;;
8399;SDS011;4237;47.030;15.396;2023-05-25T01:43:54;6.20;;;5.53;;
8399;SDS011;4237;47.030;15.396;2023-05-25T01:46:24;6.60;;;5.67;;
8399;SDS011;4237;47.030;15.396;2023-05-25T01:49:11;7.23;;;5.73;;
8399;SDS011;4237;47.030;15.396;2023-05-25T01:51:38;8.37;;;5.83;;
8399;SDS011;4237;47.030;15.396;2023-05-25T01:54:19;5.90;;;5.33;;
8399;SDS011;4237;47.030;15.396;2023-05-25T01:56:49;9.97;;;5.60;;
8399;SDS011;4237;47.030;15.396;2023-05-25T01:59:19;7.70;;;5.87;;
8399;SDS011;4237;47.030;15.396;2023-05-25T02:01:48;6.27;;;5.67;;
8399;SDS011;4237;47.030;15.396;2023-05-25T02:04:18;6.33;;;5.57;;
8399;SDS011;4237;47.030;15.396;2023-05-25T02:06:50;8.33;;;6.33;;
8399;SDS011;4237;47.030;15.396;2023-05-25T02:09:19;8.93;;;5.57;;
8399;SDS011;4237;47.030;15.396;2023-05-25T02:11:47;9.77;;;5.87;;
8399;SDS011;4237;47.030;15.396;2023-05-25T02:14:16;8.30;;;5.50;;
8399;SDS011;4237;47.030;15.396;2023-05-25T02:16:44;7.87;;;6.23;;
8399;SDS011;4237;47.030;15.396;2023-05-25T02:19:12;8.30;;;6.30;;
8399;SDS011;4237;47.030;15.396;2023-05-25T02:21:43;5.97;;;5.40;;
8399;SDS011;4237;47.030;15.396;2023-05-25T02:24:12;7.83;;;5.93;;
8399;SDS011;4237;47.030;15.396;2023-05-25T02:26:40;7.53;;;6.73;;
8399;SDS011;4237;47.030;15.396;2023-05-25T02:29:09;10.87;;;6.67;;
8399;SDS011;4237;47.030;15.396;2023-05-25T02:31:37;9.10;;;7.23;;
8399;SDS011;4237;47.030;15.396;2023-05-25T02:34:05;16.67;;;7.67;;
8399;SDS011;4237;47.030;15.396;2023-05-25T02:36:34;7.90;;;7.10;;
8399;SDS011;4237;47.030;15.396;2023-05-25T02:39:02;14.63;;;6.97;;
8399;SDS011;4237;47.030;15.396;2023-05-25T02:41:31;9.03;;;6.90;;
8399;SDS011;4237;47.030;15.396;2023-05-25T02:43:59;9.63;;;7.30;;
8399;SDS011;4237;47.030;15.396;2023-05-25T02:46:28;9.40;;;7.03;;
8399;SDS011;4237;47.030;15.396;2023-05-25T02:48:56;8.40;;;7.50;;
8399;SDS011;4237;47.030;15.396;2023-05-25T02:51:26;8.33;;;7.40;;
8399;SDS011;4237;47.030;15.396;2023-05-25T02:53:54;10.30;;;7.40;;
8399;SDS011;4237;47.030;15.396;2023-05-25T02:56:23;12.20;;;7.30;;
8399;SDS011;4237;47.030;15.396;2023-05-25T02:58:51;12.50;;;7.03;;
8399;SDS011;4237;47.030;15.396;2023-05-25T03:01:19;10.57;;;6.80;;
8399;SDS011;4237;47.030;15.396;2023-05-25T03:03:47;8.30;;;6.67;;
8399;SDS011;4237;47.030;15.396;2023-05-25T03:06:18;10.37;;;6.97;;
8399;SDS011;4237;47.030;15.396;2023-05-25T03:08:52;8.43;;;7.10;;
8399;SDS011;4237;47.030;15.396;2023-05-25T03:11:20;10.60;;;7.17;;
8399;SDS011;4237;47.030;15.396;2023-05-25T03:13:49;13.03;;;7.23;;
8399;SDS011;4237;47.030;15.396;2023-05-25T03:16:17;8.93;;;6.90;;
8399;SDS011;4237;47.030;15.396;2023-05-25T03:18:45;10.87;;;7.10;;
8399;SDS011;4237;47.030;15.396;2023-05-25T03:21:13;8.13;;;6.73;;
8399;SDS011;4237;47.030;15.396;2023-05-25T03:23:42;8.13;;;6.63;;
8399;SDS011;4237;47.030;15.396;2023-05-25T03:26:10;10.00;;;7.00;;
8399;SDS011;4237;47.030;15.396;2023-05-25T03:28:39;9.87;;;6.80;;
8399;SDS011;4237;47.030;15.396;2023-05-25T03:31:07;7.47;;;6.30;;
8399;SDS011;4237;47.030;15.396;2023-05-25T03:33:35;7.77;;;6.80;;
8399;SDS011;4237;47.030;15.396;2023-05-25T03:36:06;10.33;;;6.37;;
8399;SDS011;4237;47.030;15.396;2023-05-25T03:38:35;8.03;;;6.77;;
8399;SDS011;4237;47.030;15.396;2023-05-25T03:41:03;27.20;;;9.20;;
8399;SDS011;4237;47.030;15.396;2023-05-25T03:43:32;54.13;;;9.80;;
8399;SDS011;4237;47.030;15.396;2023-05-25T03:46:00;60.37;;;9.57;;
8399;SDS011;4237;47.030;15.396;2023-05-25T03:48:28;175.27;;;15.37;;
8399;SDS011;4237;47.030;15.396;2023-05-25T03:50:56;82.37;;;10.17;;
8399;SDS011;4237;47.030;15.396;2023-05-25T03:53:25;98.13;;;10.20;;
8399;SDS011;4237;47.030;15.396;2023-05-25T03:55:53;95.13;;;12.07;;
8399;SDS011;4237;47.030;15.396;2023-05-25T03:58:22;82.50;;;9.50;;
8399;SDS011;4237;47.030;15.396;2023-05-25T04:00:50;139.20;;;11.20;;
8399;SDS011;4237;47.030;15.396;2023-05-25T04:03:18;84.53;;;8.20;;
8399;SDS011;4237;47.030;15.396;2023-05-25T04:05:47;78.80;;;10.43;;
8399;SDS011;4237;47.030;15.396;2023-05-25T04:08:16;104.80;;;11.10;;
8399;SDS011;4237;47.030;15.396;2023-05-25T04:10:45;71.30;;;11.47;;
8399;SDS011;4237;47.030;15.396;2023-05-25T04:13:13;62.67;;;9.27;;
8399;SDS011;4237;47.030;15.396;2023-05-25T04:15:42;36.73;;;8.23;;
8399;SDS011;4237;47.030;15.396;2023-05-25T04:18:10;42.50;;;9.77;;
8399;SDS011;4237;47.030;15.396;2023-05-25T04:20:38;20.37;;;8.47;;
8399;SDS011;4237;47.030;15.396;2023-05-25T04:23:07;31.50;;;8.13;;
8399;SDS011;4237;47.030;15.396;2023-05-25T04:25:35;22.57;;;8.43;;
8399;SDS011;4237;47.030;15.396;2023-05-25T04:28:03;51.27;;;7.63;;
8399;SDS011;4237;47.030;15.396;2023-05-25T04:30:33;62.63;;;9.53;;
8399;SDS011;4237;47.030;15.396;2023-05-25T04:33:02;50.23;;;7.97;;
8399;SDS011;4237;47.030;15.396;2023-05-25T04:35:30;10.83;;;6.30;;
8399;SDS011;4237;47.030;15.396;2023-05-25T04:37:58;38.30;;;7.63;;
8399;SDS011;4237;47.030;15.396;2023-05-25T04:40:28;33.20;;;7.83;;
8399;SDS011;4237;47.030;15.396;2023-05-25T04:42:58;19.90;;;6.13;;
8399;SDS011;4237;47.030;15.396;2023-05-25T04:45:26;22.60;;;6.83;;
8399;SDS011;4237;47.030;15.396;2023-05-25T04:47:55;30.73;;;6.63;;
8399;SDS011;4237;47.030;15.396;2023-05-25T04:50:24;26.13;;;5.80;;
8399;SDS011;4237;47.030;15.396;2023-05-25T04:52:52;33.17;;;6.60;;
8399;SDS011;4237;47.030;15.396;2023-05-25T04:55:20;93.20;;;9.73;;
8399;SDS011;4237;47.030;15.396;2023-05-25T04:57:48;49.23;;;7.23;;
8399;SDS011;4237;47.030;15.396;2023-05-25T05:00:18;41.20;;;6.30;;
8399;SDS011;4237;47.030;15.396;2023-05-25T05:02:48;47.83;;;6.50;;
8399;SDS011;4237;47.030;15.396;2023-05-25T05:05:16;65.27;;;7.87;;
8399;SDS011;4237;47.030;15.396;2023-05-25T05:07:44;21.03;;;6.27;;
8399;SDS011;4237;47.030;15.396;2023-05-25T05:10:13;16.83;;;6.40;;
8399;SDS011;4237;47.030;15.396;2023-05-25T05:12:41;16.30;;;6.20;;
8399;SDS011;4237;47.030;15.396;2023-05-25T05:15:09;12.27;;;5.33;;
8399;SDS011;4237;47.030;15.396;2023-05-25T05:17:38;14.17;;;5.53;;
8399;SDS011;4237;47.030;15.396;2023-05-25T05:20:06;8.00;;;5.50;;
8399;SDS011;4237;47.030;15.396;2023-05-25T05:22:35;14.27;;;5.90;;
8399;SDS011;4237;47.030;15.396;2023-05-25T05:25:05;19.40;;;5.87;;
8399;SDS011;4237;47.030;15.396;2023-05-25T05:27:34;6.63;;;5.93;;
8399;SDS011;4237;47.030;15.396;2023-05-25T05:30:04;14.13;;;6.20;;
8399;SDS011;4237;47.030;15.396;2023-05-25T05:32:32;11.00;;;6.73;;
8399;SDS011;4237;47.030;15.396;2023-05-25T05:35:00;7.77;;;6.70;;
8399;SDS011;4237;47.030;15.396;2023-05-25T05:37:29;9.50;;;6.83;;
8399;SDS011;4237;47.030;15.396;2023-05-25T05:39:57;7.30;;;6.60;;
8399;SDS011;4237;47.030;15.396;2023-05-25T05:42:27;7.57;;;6.87;;
8399;SDS011;4237;47.030;15.396;2023-05-25T05:44:57;10.60;;;7.23;;
8399;SDS011;4237;47.030;15.396;2023-05-25T05:47:28;10.20;;;7.40;;
8399;SDS011;4237;47.030;15.396;2023-05-25T05:49:56;9.20;;;7.57;;
8399;SDS011;4237;47.030;15.396;2023-05-25T05:52:25;9.40;;;8.07;;
8399;SDS011;4237;47.030;15.396;2023-05-25T05:54:53;8.77;;;7.70;;
8399;SDS011;4237;47.030;15.396;2023-05-25T05:57:21;11.53;;;7.83;;
8399;SDS011;4237;47.030;15.396;2023-05-25T05:59:53;10.07;;;8.83;;
8399;SDS011;4237;47.030;15.396;2023-05-25T06:02:21;11.17;;;9.97;;
8399;SDS011;4237;47.030;15.396;2023-05-25T06:04:49;13.47;;;10.30;;
8399;SDS011;4237;47.030;15.396;2023-05-25T06:07:17;21.07;;;11.27;;
8399;SDS011;4237;47.030;15.396;2023-05-25T06:09:46;12.73;;;9.57;;
8399;SDS011;4237;47.030;15.396;2023-05-25T06:12:14;17.07;;;9.60;;
8399;SDS011;4237;47.030;15.396;2023-05-25T06:14:42;14.03;;;9.77;;
8399;SDS011;4237;47.030;15.396;2023-05-25T06:17:12;13.87;;;8.30;;
8399;SDS011;4237;47.030;15.396;2023-05-25T06:19:41;10.43;;;8.93;;
8399;SDS011;4237;47.030;15.396;2023-05-25T06:22:09;9.53;;;8.63;;
8399;SDS011;4237;47.030;15.396;2023-05-25T06:24:37;10.83;;;8.40;;
8399;SDS011;4237;47.030;15.396;2023-05-25T06:27:05;11.17;;;8.77;;
8399;SDS011;4237;47.030;15.396;2023-05-25T06:29:33;11.73;;;8.03;;
8399;SDS011;4237;47.030;15.396;2023-05-25T06:32:02;9.70;;;8.70;;
8399;SDS011;4237;47.030;15.396;2023-05-25T06:34:30;10.03;;;8.70;;
8399;SDS011;4237;47.030;15.396;2023-05-25T06:36:58;9.97;;;8.93;;
8399;SDS011;4237;47.030;15.396;2023-05-25T06:39:26;10.73;;;8.43;;
8399;SDS011;4237;47.030;15.396;2023-05-25T06:41:55;17.47;;;8.80;;
8399;SDS011;4237;47.030;15.396;2023-05-25T06:44:23;9.43;;;8.50;;
8399;SDS011;4237;47.030;15.396;2023-05-25T06:46:51;14.00;;;8.73;;
8399;SDS011;4237;47.030;15.396;2023-05-25T06:49:19;14.80;;;9.33;;
8399;SDS011;4237;47.030;15.396;2023-05-25T06:51:48;11.73;;;9.30;;
8399;SDS011;4237;47.030;15.396;2023-05-25T06:54:17;12.93;;;10.03;;
8399;SDS011;4237;47.030;15.396;2023-05-25T06:56:45;14.97;;;10.17;;
8399;SDS011;4237;47.030;15.396;2023-05-25T06:59:14;13.33;;;9.50;;
8399;SDS011;4237;47.030;15.396;2023-05-25T07:01:44;16.23;;;8.33;;
8399;SDS011;4237;47.030;15.396;2023-05-25T07:04:12;13.97;;;9.50;;
8399;SDS011;4237;47.030;15.396;2023-05-25T07:06:40;19.87;;;9.97;;
8399;SDS011;4237;47.030;15.396;2023-05-25T07:09:08;15.57;;;9.77;;
8399;SDS011;4237;47.030;15.396;2023-05-25T07:11:37;13.50;;;9.00;;
8399;SDS011;4237;47.030;15.396;2023-05-25T07:14:05;9.73;;;8.73;;
8399;SDS011;4237;47.030;15.396;2023-05-25T07:16:33;15.50;;;10.07;;
8399;SDS011;4237;47.030;15.396;2023-05-25T07:19:02;11.00;;;9.47;;
8399;SDS011;4237;47.030;15.396;2023-05-25T07:21:30;11.23;;;8.73;;
8399;SDS011;4237;47.030;15.396;2023-05-25T07:24:03;11.63;;;10.03;;
8399;SDS011;4237;47.030;15.396;2023-05-25T07:26:31;11.37;;;8.90;;
8399;SDS011;4237;47.030;15.396;2023-05-25T07:29:00;9.83;;;8.87;;
8399;SDS011;4237;47.030;15.396;2023-05-25T07:31:28;12.17;;;9.80;;
8399;SDS011;4237;47.030;15.396;2023-05-25T07:33:56;12.37;;;9.53;;
8399;SDS011;4237;47.030;15.396;2023-05-25T07:36:24;11.20;;;9.50;;
8399;SDS011;4237;47.030;15.396;2023-05-25T07:38:53;10.07;;;9.07;;
8399;SDS011;4237;47.030;15.396;2023-05-25T07:41:21;11.87;;;8.93;;
8399;SDS011;4237;47.030;15.396;2023-05-25T07:43:49;9.37;;;8.37;;
8399;SDS011;4237;47.030;15.396;2023-05-25T07:46:18;11.20;;;8.83;;
8399;SDS011;4237;47.030;15.396;2023-05-25T07:48:48;9.57;;;7.80;;
8399;SDS011;4237;47.030;15.396;2023-05-25T07:51:16;9.83;;;8.00;;
8399;SDS011;4237;47.030;15.396;2023-05-25T07:53:45;9.30;;;7.73;;
8399;SDS011;4237;47.030;15.396;2023-05-25T07:56:13;9.83;;;7.33;;
8399;SDS011;4237;47.030;15.396;2023-05-25T07:58:41;9.35;;;7.40;;
8399;SDS011;4237;47.030;15.396;2023-05-25T08:01:09;8.53;;;7.00;;
8399;SDS011;4237;47.030;15.396;2023-05-25T08:03:37;11.30;;;7.45;;
8399;SDS011;4237;47.030;15.396;2023-05-25T08:06:05;9.90;;;6.58;;
8399;SDS011;4237;47.030;15.396;2023-05-25T08:08:34;9.25;;;6.90;;
8399;SDS011;4237;47.030;15.396;2023-05-25T08:11:03;10.50;;;6.53;;
8399;SDS011;4237;47.030;15.396;2023-05-25T08:13:31;14.25;;;7.08;;
8399;SDS011;4237;47.030;15.396;2023-05-25T08:15:59;9.53;;;6.80;;
8399;SDS011;4237;47.030;15.396;2023-05-25T08:18:27;10.80;;;6.92;;
8399;SDS011;4237;47.030;15.396;2023-05-25T08:20:57;7.80;;;5.80;;
8399;SDS011;4237;47.030;15.396;2023-05-25T08:23:25;9.47;;;5.63;;
8399;SDS011;4237;47.030;15.396;2023-05-25T08:25:53;11.55;;;6.35;;
8399;SDS011;4237;47.030;15.396;2023-05-25T08:28:22;12.70;;;6.20;;
8399;SDS011;4237;47.030;15.396;2023-05-25T08:30:50;7.37;;;5.57;;
8399;SDS011;4237;47.030;15.396;2023-05-25T08:33:18;8.28;;;5.20;;
8399;SDS011;4237;47.030;15.396;2023-05-25T08:35:46;11.25;;;5.70;;
8399;SDS011;4237;47.030;15.396;2023-05-25T08:38:16;9.30;;;5.50;;
8399;SDS011;4237;47.030;15.396;2023-05-25T08:40:44;9.65;;;5.35;;
8399;SDS011;4237;47.030;15.396;2023-05-25T08:43:12;7.83;;;5.37;;
8399;SDS011;4237;47.030;15.396;2023-05-25T08:45:41;7.72;;;6.37;;
8399;SDS011;4237;47.030;15.396;2023-05-25T08:48:10;9.78;;;5.60;;
8399;SDS011;4237;47.030;15.396;2023-05-25T08:50:40;7.50;;;5.30;;
8399;SDS011;4237;47.030;15.396;2023-05-25T08:53:10;7.90;;;5.30;;
8399;SDS011;4237;47.030;15.396;2023-05-25T08:55:39;7.08;;;4.75;;
8399;SDS011;4237;47.030;15.396;2023-05-25T08:58:10;6.50;;;4.28;;
8399;SDS011;4237;47.030;15.396;2023-05-25T09:00:41;7.90;;;5.08;;
8399;SDS011;4237;47.030;15.396;2023-05-25T09:03:15;7.42;;;5.03;;
8399;SDS011;4237;47.030;15.396;2023-05-25T09:05:46;10.23;;;4.80;;
8399;SDS011;4237;47.030;15.396;2023-05-25T09:08:15;7.05;;;5.05;;
8399;SDS011;4237;47.030;15.396;2023-05-25T09:10:44;5.25;;;4.22;;
8399;SDS011;4237;47.030;15.396;2023-05-25T09:13:12;7.75;;;4.58;;
8399;SDS011;4237;47.030;15.396;2023-05-25T09:15:40;6.10;;;4.03;;
8399;SDS011;4237;47.030;15.396;2023-05-25T09:18:08;4.83;;;3.22;;
8399;SDS011;4237;47.030;15.396;2023-05-25T09:20:37;7.05;;;3.98;;
8399;SDS011;4237;47.030;15.396;2023-05-25T09:23:05;5.25;;;3.62;;
8399;SDS011;4237;47.030;15.396;2023-05-25T09:25:33;9.60;;;4.70;;
8399;SDS011;4237;47.030;15.396;2023-05-25T09:28:02;8.25;;;4.03;;
8399;SDS011;4237;47.030;15.396;2023-05-25T09:30:30;7.75;;;4.00;;
8399;SDS011;4237;47.030;15.396;2023-05-25T09:33:09;9.18;;;4.05;;
8399;SDS011;4237;47.030;15.396;2023-05-25T09:35:38;10.05;;;3.98;;
8399;SDS011;4237;47.030;15.396;2023-05-25T09:38:07;6.40;;;3.70;;
8399;SDS011;4237;47.030;15.396;2023-05-25T09:40:36;5.10;;;3.83;;
8399;SDS011;4237;47.030;15.396;2023-05-25T09:43:04;5.70;;;3.70;;
8399;SDS011;4237;47.030;15.396;2023-05-25T09:45:33;4.08;;;3.67;;
8399;SDS011;4237;47.030;15.396;2023-05-25T09:48:03;4.45;;;3.87;;
8399;SDS011;4237;47.030;15.396;2023-05-25T09:50:33;8.90;;;3.83;;
8399;SDS011;4237;47.030;15.396;2023-05-25T09:53:03;4.97;;;3.67;;
8399;SDS011;4237;47.030;15.396;2023-05-25T09:55:32;8.05;;;3.67;;
8399;SDS011;4237;47.030;15.396;2023-05-25T09:58:00;5.97;;;3.60;;
8399;SDS011;4237;47.030;15.396;2023-05-25T10:00:29;5.45;;;3.12;;
8399;SDS011;4237;47.030;15.396;2023-05-25T10:02:57;4.28;;;3.20;;
8399;SDS011;4237;47.030;15.396;2023-05-25T10:05:25;4.45;;;3.15;;
8399;SDS011;4237;47.030;15.396;2023-05-25T10:07:53;7.85;;;3.58;;
8399;SDS011;4237;47.030;15.396;2023-05-25T10:10:22;3.92;;;3.10;;
8399;SDS011;4237;47.030;15.396;2023-05-25T10:12:51;5.67;;;3.20;;
8399;SDS011;4237;47.030;15.396;2023-05-25T10:15:20;4.87;;;3.40;;
8399;SDS011;4237;47.030;15.396;2023-05-25T10:17:52;4.87;;;3.52;;
8399;SDS011;4237;47.030;15.396;2023-05-25T10:20:22;3.62;;;3.33;;
8399;SDS011;4237;47.030;15.396;2023-05-25T10:23:12;3.83;;;3.30;;
8399;SDS011;4237;47.030;15.396;2023-05-25T10:27:58;4.50;;;3.33;;
8399;SDS011;4237;47.030;15.396;2023-05-25T10:30:26;6.30;;;4.00;;
8399;SDS011;4237;47.030;15.396;2023-05-25T10:32:55;6.12;;;3.75;;
8399;SDS011;4237;47.030;15.396;2023-05-25T10:35:23;4.83;;;3.87;;
8399;SDS011;4237;47.030;15.396;2023-05-25T10:37:52;4.53;;;3.85;;
8399;SDS011;4237;47.030;15.396;2023-05-25T10:40:21;6.83;;;3.50;;
8399;SDS011;4237;47.030;15.396;2023-05-25T10:42:49;3.80;;;3.40;;
8399;SDS011;4237;47.030;15.396;2023-05-25T10:45:18;4.20;;;3.30;;
8399;SDS011;4237;47.030;15.396;2023-05-25T10:47:47;5.12;;;3.85;;
8399;SDS011;4237;47.030;15.396;2023-05-25T10:50:17;4.17;;;3.77;;
8399;SDS011;4237;47.030;15.396;2023-05-25T10:52:56;5.30;;;3.20;;
8399;SDS011;4237;47.030;15.396;2023-05-25T10:55:26;4.85;;;3.47;;
8399;SDS011;4237;47.030;15.396;2023-05-25T10:58:19;3.80;;;3.50;;
8399;SDS011;4237;47.030;15.396;2023-05-25T11:00:29;5.65;;;3.58;;
8399;SDS011;4237;47.030;15.396;2023-05-25T11:02:55;5.60;;;3.60;;
8399;SDS011;4237;47.030;15.396;2023-05-25T11:07:59;11.38;;;3.42;;
8399;SDS011;4237;47.030;15.396;2023-05-25T11:13:20;5.87;;;3.40;;
8399;SDS011;4237;47.030;15.396;2023-05-25T11:18:42;4.80;;;3.45;;
8399;SDS011;4237;47.030;15.396;2023-05-25T11:21:20;4.65;;;3.55;;
8399;SDS011;4237;47.030;15.396;2023-05-25T11:23:58;6.08;;;3.35;;
8399;SDS011;4237;47.030;15.396;2023-05-25T11:26:28;5.15;;;3.10;;
8399;SDS011;4237;47.030;15.396;2023-05-25T11:28:57;3.47;;;3.05;;
8399;SDS011;4237;47.030;15.396;2023-05-25T11:31:29;4.85;;;3.90;;
8399;SDS011;4237;47.030;15.396;2023-05-25T11:33:59;5.05;;;3.40;;
8399;SDS011;4237;47.030;15.396;2023-05-25T11:36:27;7.33;;;3.80;;
8399;SDS011;4237;47.030;15.396;2023-05-25T11:38:57;4.92;;;3.40;;
8399;SDS011;4237;47.030;15.396;2023-05-25T11:41:27;3.75;;;3.15;;
8399;SDS011;4237;47.030;15.396;2023-05-25T11:44:01;3.17;;;2.90;;
8399;SDS011;4237;47.030;15.396;2023-05-25T11:46:26;4.60;;;3.05;;
8399;SDS011;4237;47.030;15.396;2023-05-25T11:48:54;5.25;;;3.42;;
8399;SDS011;4237;47.030;15.396;2023-05-25T11:51:23;5.55;;;3.60;;
8399;SDS011;4237;47.030;15.396;2023-05-25T11:53:52;5.83;;;2.92;;
8399;SDS011;4237;47.030;15.396;2023-05-25T11:56:20;7.00;;;3.50;;
8399;SDS011;4237;47.030;15.396;2023-05-25T11:58:52;3.67;;;3.25;;
8399;SDS011;4237;47.030;15.396;2023-05-25T12:01:20;4.42;;;3.30;;
8399;SDS011;4237;47.030;15.396;2023-05-25T12:03:50;4.00;;;3.33;;
8399;SDS011;4237;47.030;15.396;2023-05-25T12:06:23;6.80;;;3.67;;
8399;SDS011;4237;47.030;15.396;2023-05-25T12:08:54;3.85;;;3.20;;
8399;SDS011;4237;47.030;15.396;2023-05-25T12:11:26;5.05;;;3.80;;
8399;SDS011;4237;47.030;15.396;2023-05-25T12:13:55;4.17;;;3.52;;
8399;SDS011;4237;47.030;15.396;2023-05-25T12:16:23;9.38;;;3.67;;
8399;SDS011;4237;47.030;15.396;2023-05-25T12:18:52;5.55;;;3.90;;
8399;SDS011;4237;47.030;15.396;2023-05-25T12:21:20;6.78;;;3.70;;
8399;SDS011;4237;47.030;15.396;2023-05-25T12:23:49;5.40;;;3.62;;
8399;SDS011;4237;47.030;15.396;2023-05-25T12:26:17;5.30;;;3.80;;
8399;SDS011;4237;47.030;15.396;2023-05-25T12:29:04;4.55;;;3.17;;
8399;SDS011;4237;47.030;15.396;2023-05-25T12:31:34;3.40;;;3.10;;
8399;SDS011;4237;47.030;15.396;2023-05-25T12:36:35;7.40;;;3.75;;
8399;SDS011;4237;47.030;15.396;2023-05-25T12:39:04;4.85;;;3.55;;
8399;SDS011;4237;47.030;15.396;2023-05-25T12:41:49;3.50;;;3.20;;
8399;SDS011;4237;47.030;15.396;2023-05-25T12:44:25;5.62;;;3.10;;
8399;SDS011;4237;47.030;15.396;2023-05-25T12:46:49;4.67;;;3.40;;
8399;SDS011;4237;47.030;15.396;2023-05-25T12:49:21;3.92;;;3.30;;
8399;SDS011;4237;47.030;15.396;2023-05-25T12:51:49;5.35;;;3.40;;
8399;SDS011;4237;47.030;15.396;2023-05-25T12:57:04;5.50;;;3.65;;
8399;SDS011;4237;47.030;15.396;2023-05-25T12:59:33;4.83;;;3.30;;
8399;SDS011;4237;47.030;15.396;2023-05-25T13:02:04;6.05;;;3.42;;
8399;SDS011;4237;47.030;15.396;2023-05-25T13:04:33;4.00;;;3.42;;
8399;SDS011;4237;47.030;15.396;2023-05-25T13:07:02;3.42;;;2.98;;
8399;SDS011;4237;47.030;15.396;2023-05-25T13:09:31;5.65;;;3.17;;
8399;SDS011;4237;47.030;15.396;2023-05-25T13:11:59;9.30;;;3.30;;
8399;SDS011;4237;47.030;15.396;2023-05-25T13:14:29;6.85;;;3.60;;
8399;SDS011;4237;47.030;15.396;2023-05-25T13:16:57;3.60;;;3.30;;
8399;SDS011;4237;47.030;15.396;2023-05-25T13:19:25;4.62;;;3.52;;
8399;SDS011;4237;47.030;15.396;2023-05-25T13:21:53;4.08;;;3.20;;
8399;SDS011;4237;47.030;15.396;2023-05-25T13:24:22;4.37;;;3.40;;
8399;SDS011;4237;47.030;15.396;2023-05-25T13:26:51;4.40;;;2.95;;
8399;SDS011;4237;47.030;15.396;2023-05-25T13:29:19;3.80;;;3.37;;
8399;SDS011;4237;47.030;15.396;2023-05-25T13:31:47;6.30;;;3.60;;
8399;SDS011;4237;47.030;15.396;2023-05-25T13:34:15;8.25;;;3.50;;
8399;SDS011;4237;47.030;15.396;2023-05-25T13:36:43;4.47;;;3.67;;
8399;SDS011;4237;47.030;15.396;2023-05-25T13:39:12;4.30;;;3.58;;
8399;SDS011;4237;47.030;15.396;2023-05-25T13:41:40;7.87;;;3.50;;
8399;SDS011;4237;47.030;15.396;2023-05-25T13:44:10;5.50;;;3.10;;
8399;SDS011;4237;47.030;15.396;2023-05-25T13:46:40;6.42;;;3.83;;
8399;SDS011;4237;47.030;15.396;2023-05-25T13:49:08;4.37;;;3.20;;
8399;SDS011;4237;47.030;15.396;2023-05-25T13:51:37;4.95;;;3.50;;
8399;SDS011;4237;47.030;15.396;2023-05-25T13:54:05;5.28;;;3.65;;
8399;SDS011;4237;47.030;15.396;2023-05-25T13:56:34;5.45;;;3.60;;
8399;SDS011;4237;47.030;15.396;2023-05-25T13:59:02;4.08;;;3.40;;
8399;SDS011;4237;47.030;15.396;2023-05-25T14:01:30;4.42;;;4.00;;
8399;SDS011;4237;47.030;15.396;2023-05-25T14:03:59;7.03;;;3.60;;
8399;SDS011;4237;47.030;15.396;2023-05-25T14:06:27;6.78;;;3.75;;
8399;SDS011;4237;47.030;15.396;2023-05-25T14:08:55;4.87;;;3.37;;
8399;SDS011;4237;47.030;15.396;2023-05-25T14:11:23;5.22;;;3.50;;
8399;SDS011;4237;47.030;15.396;2023-05-25T14:13:52;5.58;;;3.60;;
8399;SDS011;4237;47.030;15.396;2023-05-25T14:16:21;6.30;;;3.55;;
8399;SDS011;4237;47.030;15.396;2023-05-25T14:18:49;5.83;;;3.70;;
8399;SDS011;4237;47.030;15.396;2023-05-25T14:21:17;5.22;;;3.62;;
8399;SDS011;4237;47.030;15.396;2023-05-25T14:23:45;3.72;;;3.33;;
8399;SDS011;4237;47.030;15.396;2023-05-25T14:26:14;4.47;;;3.55;;
8399;SDS011;4237;47.030;15.396;2023-05-25T14:28:42;4.30;;;3.65;;
8399;SDS011;4237;47.030;15.396;2023-05-25T14:31:10;3.70;;;3.40;;
8399;SDS011;4237;47.030;15.396;2023-05-25T14:33:39;4.08;;;3.65;;
8399;SDS011;4237;47.030;15.396;2023-05-25T14:36:08;3.87;;;3.52;;
8399;SDS011;4237;47.030;15.396;2023-05-25T14:38:36;3.70;;;3.40;;
8399;SDS011;4237;47.030;15.396;2023-05-25T14:41:05;5.05;;;3.83;;
8399;SDS011;4237;47.030;15.396;2023-05-25T14:43:33;7.17;;;3.67;;
8399;SDS011;4237;47.030;15.396;2023-05-25T14:46:01;5.40;;;3.50;;
8399;SDS011;4237;47.030;15.396;2023-05-25T14:48:29;4.08;;;3.55;;
8399;SDS011;4237;47.030;15.396;2023-05-25T14:50:57;6.87;;;3.80;;
8399;SDS011;4237;47.030;15.396;2023-05-25T14:53:26;5.72;;;3.85;;
8399;SDS011;4237;47.030;15.396;2023-05-25T14:55:54;9.17;;;4.00;;
8399;SDS011;4237;47.030;15.396;2023-05-25T14:58:24;5.37;;;3.80;;
8399;SDS011;4237;47.030;15.396;2023-05-25T15:00:52;5.57;;;3.77;;
8399;SDS011;4237;47.030;15.396;2023-05-25T15:03:20;5.70;;;3.95;;
8399;SDS011;4237;47.030;15.396;2023-05-25T15:05:48;11.67;;;3.90;;
8399;SDS011;4237;47.030;15.396;2023-05-25T15:08:17;5.63;;;3.90;;
8399;SDS011;4237;47.030;15.396;2023-05-25T15:10:45;5.00;;;3.53;;
8399;SDS011;4237;47.030;15.396;2023-05-25T15:13:13;5.70;;;3.53;;
8399;SDS011;4237;47.030;15.396;2023-05-25T15:15:42;5.77;;;3.87;;
8399;SDS011;4237;47.030;15.396;2023-05-25T15:18:10;5.30;;;3.80;;
8399;SDS011;4237;47.030;15.396;2023-05-25T15:20:38;8.27;;;3.80;;
8399;SDS011;4237;47.030;15.396;2023-05-25T15:23:06;6.63;;;3.70;;